Airport ICAO


20:21 UTC

20°C

Scattered clouds


An affordable passengers' Moving Map for your aircraft. Made for the iPad and the iPhone
More information here

LFLN


Saint Yan FRANCE   VFR CB CAVOK


METAR LFLN 162000Z AUTO 31003KT 250V360 CAVOK 20/14 Q1015 TEMPO 30013G25KT 2500 -TSRA SCT050CB 0h21min

TAF LFLN 161700Z 1618/1703 25008KT 9999 FEW060TCU TEMPO 1618/1621 4000 -SHRA PROB30 TEMPO 1618/1621 30013G25KT 2500 -TSRA SCT050CB BECMG 1621/1623 CAVOK 3h21min





NOTAMS

OPEN